createdAt,value
2022-08-23T00:01:34.821Z,2.58
2022-08-23T00:04:11.616Z,2.70
2022-08-23T00:06:39.970Z,2.90
2022-08-23T00:09:07.354Z,2.70
2022-08-23T00:11:45.410Z,3.00
2022-08-23T00:14:17.928Z,2.80
2022-08-23T00:16:45.739Z,2.90
2022-08-23T00:19:16.838Z,2.80
2022-08-23T00:21:45.649Z,3.50
2022-08-23T00:24:14.214Z,3.20
2022-08-23T00:26:56.417Z,3.47
2022-08-23T00:29:26.324Z,3.05
2022-08-23T00:31:54.055Z,3.30
2022-08-23T00:34:22.132Z,3.60
2022-08-23T00:36:50.260Z,3.38
2022-08-23T00:39:18.851Z,3.80
2022-08-23T00:41:47.746Z,2.88
2022-08-23T00:44:52.482Z,3.25
2022-08-23T00:47:40.100Z,2.95
2022-08-23T00:50:23.616Z,4.75
2022-08-23T00:53:03.767Z,2.90
2022-08-23T00:55:32.739Z,2.55
2022-08-23T00:58:00.639Z,2.90
2022-08-23T01:00:28.985Z,2.60
2022-08-23T01:02:57.984Z,2.60
2022-08-23T01:05:31.549Z,2.57
2022-08-23T01:08:00.323Z,2.15
2022-08-23T01:10:33.960Z,2.35
2022-08-23T01:13:20.070Z,2.53
2022-08-23T01:15:51.961Z,2.83
2022-08-23T01:18:23.908Z,2.60
2022-08-23T01:20:57.142Z,2.80
2022-08-23T01:23:50.151Z,2.80
2022-08-23T01:26:21.763Z,2.13
2022-08-23T01:28:50.691Z,2.55
2022-08-23T01:31:18.862Z,2.92
2022-08-23T01:33:56.952Z,2.65
2022-08-23T01:36:24.595Z,2.85
2022-08-23T01:38:52.819Z,2.60
2022-08-23T01:41:20.272Z,2.70
2022-08-23T01:43:47.858Z,2.75
2022-08-23T01:46:20.435Z,2.72
2022-08-23T01:48:49.223Z,3.10
2022-08-23T01:51:19.050Z,2.90
2022-08-23T01:53:46.891Z,3.25
2022-08-23T01:56:20.134Z,2.83
2022-08-23T01:58:56.941Z,2.65
2022-08-23T02:01:30.034Z,2.90
2022-08-23T02:04:00.793Z,3.03
2022-08-23T02:06:32.926Z,2.60
2022-08-23T02:09:01.457Z,2.33
2022-08-23T02:11:40.718Z,2.65
2022-08-23T02:14:12.217Z,2.40
2022-08-23T02:17:04.573Z,2.70
2022-08-23T02:19:34.618Z,2.20
2022-08-23T02:22:03.650Z,3.08
2022-08-23T02:24:31.950Z,2.72
2022-08-23T02:27:04.318Z,2.78
2022-08-23T02:29:39.374Z,2.80
2022-08-23T02:32:10.299Z,2.75
2022-08-23T02:34:40.282Z,2.53
2022-08-23T02:37:10.220Z,2.72
2022-08-23T02:39:38.867Z,2.92
2022-08-23T02:42:08.139Z,2.78
2022-08-23T02:44:40.939Z,2.72
2022-08-23T02:47:09.192Z,2.50
2022-08-23T02:49:38.689Z,2.67
2022-08-23T02:52:07.379Z,2.70
2022-08-23T02:54:36.180Z,2.80
2022-08-23T02:57:03.750Z,2.90
2022-08-23T02:59:31.782Z,2.53
2022-08-23T03:01:59.372Z,2.70
2022-08-23T03:04:31.788Z,2.60
2022-08-23T03:06:58.859Z,2.50
2022-08-23T03:09:26.302Z,2.70
2022-08-23T03:11:53.562Z,3.25
2022-08-23T03:14:22.381Z,2.80
2022-08-23T03:16:49.831Z,3.00
2022-08-23T03:19:17.397Z,3.00
2022-08-23T03:21:45.336Z,3.05
2022-08-23T03:24:15.550Z,3.00
2022-08-23T03:26:44.478Z,3.60
2022-08-23T03:29:12.938Z,3.47
2022-08-23T03:31:57.181Z,2.80
2022-08-23T03:34:26.075Z,2.97
2022-08-23T03:36:54.125Z,2.92
2022-08-23T03:39:21.260Z,3.03
2022-08-23T03:41:48.702Z,3.40
2022-08-23T03:44:16.045Z,3.08
2022-08-23T03:46:44.593Z,2.50
2022-08-23T03:49:12.144Z,3.30
2022-08-23T03:51:51.330Z,3.00
2022-08-23T03:54:18.492Z,3.00
2022-08-23T03:56:55.856Z,2.60
2022-08-23T03:59:24.309Z,3.08
2022-08-23T04:01:51.577Z,3.25
2022-08-23T04:04:18.757Z,3.28
2022-08-23T04:07:06.019Z,3.20
2022-08-23T04:09:34.071Z,2.88
2022-08-23T04:12:01.412Z,2.97
2022-08-23T04:14:29.266Z,3.38
2022-08-23T04:16:56.816Z,3.25
2022-08-23T04:19:24.116Z,3.10
2022-08-23T04:22:04.211Z,3.30
2022-08-23T04:24:39.940Z,3.60
2022-08-23T04:27:07.420Z,2.92
2022-08-23T04:29:35.122Z,3.60
2022-08-23T04:32:07.614Z,3.13
2022-08-23T04:34:40.391Z,3.50
2022-08-23T04:37:09.675Z,3.10
2022-08-23T04:39:59.124Z,3.53
2022-08-23T04:42:32.101Z,3.45
2022-08-23T04:45:00.078Z,3.40
2022-08-23T04:47:27.399Z,3.45
2022-08-23T04:49:57.364Z,3.13
2022-08-23T04:52:24.660Z,3.30
2022-08-23T04:54:52.704Z,3.63
2022-08-23T04:57:43.681Z,3.00
2022-08-23T05:00:15.595Z,3.67
2022-08-23T05:02:50.039Z,3.33
2022-08-23T05:05:17.699Z,3.78
2022-08-23T05:07:45.724Z,3.28
2022-08-23T05:10:16.314Z,3.47
2022-08-23T05:12:48.720Z,3.50
2022-08-23T05:15:18.072Z,3.85
2022-08-23T05:17:48.504Z,3.72
2022-08-23T05:20:17.094Z,3.50
2022-08-23T05:22:44.703Z,3.30
2022-08-23T05:25:58.959Z,3.60
2022-08-23T05:28:33.572Z,3.38
2022-08-23T05:31:06.196Z,3.35
2022-08-23T05:33:45.671Z,3.30
2022-08-23T05:36:15.360Z,3.67
2022-08-23T05:38:43.727Z,4.15
2022-08-23T05:41:12.525Z,3.30
2022-08-23T05:43:40.216Z,3.92
2022-08-23T05:46:13.247Z,3.53
2022-08-23T05:48:47.388Z,4.07
2022-08-23T05:51:24.142Z,3.88
2022-08-23T05:53:53.722Z,3.88
2022-08-23T05:56:33.657Z,3.63
2022-08-23T05:59:05.982Z,3.70
2022-08-23T06:01:41.016Z,3.72
2022-08-23T06:04:19.675Z,3.88
2022-08-23T06:06:48.778Z,4.20
2022-08-23T06:09:18.316Z,4.20
2022-08-23T06:11:47.211Z,4.32
2022-08-23T06:14:15.912Z,4.05
2022-08-23T06:16:46.826Z,5.10
2022-08-23T06:19:18.185Z,5.15
2022-08-23T06:22:03.993Z,5.22
2022-08-23T06:24:36.464Z,4.53
2022-08-23T06:27:13.281Z,5.43
2022-08-23T06:29:41.470Z,4.78
2022-08-23T06:32:37.891Z,5.55
2022-08-23T06:35:37.953Z,5.50
2022-08-23T06:38:15.773Z,5.93
2022-08-23T06:40:51.960Z,6.10
2022-08-23T06:43:43.178Z,6.18
2022-08-23T06:46:38.740Z,6.10
2022-08-23T06:49:08.151Z,5.95
2022-08-23T06:51:42.159Z,6.97
2022-08-23T06:54:20.783Z,6.90
2022-08-23T06:56:48.818Z,6.70
2022-08-23T06:59:20.350Z,6.85
2022-08-23T07:02:14.948Z,7.07
2022-08-23T07:04:57.633Z,7.32
2022-08-23T07:08:04.142Z,7.90
2022-08-23T07:10:31.398Z,7.72
2022-08-23T07:12:58.685Z,7.85
2022-08-23T07:15:25.831Z,6.97
2022-08-23T07:17:53.274Z,8.25
2022-08-23T07:20:20.691Z,8.23
2022-08-23T07:22:47.935Z,7.97
2022-08-23T07:25:15.599Z,6.97
2022-08-23T07:27:48.527Z,7.43
2022-08-23T07:30:19.425Z,6.88
2022-08-23T07:32:46.953Z,6.93
2022-08-23T07:35:39.626Z,6.80
2022-08-23T07:38:07.550Z,6.70
2022-08-23T07:40:39.041Z,6.38
2022-08-23T07:43:08.515Z,6.25
2022-08-23T07:45:39.564Z,6.97
2022-08-23T07:48:10.100Z,5.32
2022-08-23T07:51:04.732Z,5.78
2022-08-23T07:53:37.889Z,6.72
2022-08-23T07:56:09.841Z,7.25
2022-08-23T07:58:55.614Z,6.25
2022-08-23T08:01:55.315Z,6.10
2022-08-23T08:04:24.727Z,5.73
2022-08-23T08:07:10.885Z,5.88
2022-08-23T08:09:43.874Z,6.15
2022-08-23T08:12:12.111Z,6.15
2022-08-23T08:14:42.676Z,6.30
2022-08-23T08:17:11.969Z,7.00
2022-08-23T08:19:59.021Z,6.97
2022-08-23T08:22:47.563Z,6.40
2022-08-23T08:25:15.771Z,6.57
2022-08-23T08:27:43.639Z,6.68
2022-08-23T08:30:12.249Z,6.47
2022-08-23T08:32:46.976Z,7.47
2022-08-23T08:35:14.700Z,7.05
2022-08-23T08:37:42.473Z,7.57
2022-08-23T08:40:10.140Z,7.07
2022-08-23T08:42:40.824Z,7.43
2022-08-23T08:45:12.390Z,7.07
2022-08-23T08:47:45.049Z,7.30
2022-08-23T08:50:24.466Z,7.53
2022-08-23T08:53:16.980Z,6.53
2022-08-23T08:56:34.793Z,6.90
2022-08-23T08:59:19.469Z,6.32
2022-08-23T09:01:48.674Z,7.00
2022-08-23T09:04:22.757Z,7.13
2022-08-23T09:07:08.122Z,7.00
2022-08-23T09:10:09.824Z,6.45
2022-08-23T09:13:21.815Z,7.50
2022-08-23T09:16:05.340Z,7.25
2022-08-23T09:18:35.833Z,6.43
2022-08-23T09:21:07.224Z,6.55
2022-08-23T09:23:42.674Z,6.45
2022-08-23T09:26:17.535Z,6.60
2022-08-23T09:28:47.970Z,6.50
2022-08-23T09:31:51.028Z,6.78
2022-08-23T09:34:24.216Z,7.03
2022-08-23T09:37:16.573Z,6.95
2022-08-23T09:42:40.601Z,6.82
2022-08-23T09:45:28.874Z,6.50
2022-08-23T09:47:58.413Z,7.20
2022-08-23T09:50:42.473Z,7.00
2022-08-23T09:53:13.064Z,7.00
2022-08-23T09:55:54.946Z,7.13
2022-08-23T09:58:36.485Z,6.80
2022-08-23T10:01:20.463Z,6.75
2022-08-23T10:04:23.334Z,7.45
2022-08-23T10:06:53.242Z,6.72
2022-08-23T10:09:28.947Z,7.72
2022-08-23T10:11:58.864Z,8.95
2022-08-23T10:14:30.761Z,7.80
2022-08-23T10:17:17.392Z,7.18
2022-08-23T10:19:52.581Z,7.72
2022-08-23T10:22:27.158Z,7.95
2022-08-23T10:25:22.324Z,7.72
2022-08-23T10:28:21.157Z,8.55
2022-08-23T10:31:01.187Z,8.05
2022-08-23T10:34:18.386Z,7.65
2022-08-23T10:36:58.298Z,7.75
2022-08-23T10:39:30.503Z,8.25
2022-08-23T10:42:24.058Z,8.38
2022-08-23T10:45:10.082Z,8.63
2022-08-23T10:47:44.624Z,8.88
2022-08-23T10:50:22.225Z,9.90
2022-08-23T10:53:13.777Z,9.40
2022-08-23T10:56:06.366Z,10.25
2022-08-23T10:58:53.766Z,10.43
2022-08-23T11:01:26.611Z,11.55
2022-08-23T11:04:03.841Z,11.18
2022-08-23T11:06:48.242Z,10.52
2022-08-23T11:09:15.466Z,11.63
2022-08-23T11:12:14.743Z,12.40
2022-08-23T11:14:58.792Z,12.27
2022-08-23T11:17:41.304Z,12.57
2022-08-23T11:20:12.393Z,13.57
2022-08-23T11:22:57.878Z,14.02
2022-08-23T11:25:25.108Z,15.52
2022-08-23T11:28:24.080Z,13.70
2022-08-23T11:31:24.867Z,14.17
2022-08-23T11:34:01.249Z,15.88
2022-08-23T11:36:30.379Z,14.88
2022-08-23T11:38:57.547Z,16.23
2022-08-23T11:41:31.665Z,14.20
2022-08-23T11:44:07.739Z,16.48
2022-08-23T11:46:48.803Z,15.55
2022-08-23T11:49:17.524Z,16.92
2022-08-23T11:51:50.704Z,16.33
2022-08-23T11:54:52.251Z,16.88
2022-08-23T11:57:29.399Z,14.38
2022-08-23T11:59:59.396Z,16.17
2022-08-23T12:02:36.899Z,16.65
2022-08-23T12:05:23.075Z,16.42
2022-08-23T12:08:06.022Z,16.65
2022-08-23T12:11:06.128Z,16.73
2022-08-23T12:13:46.848Z,15.98
2022-08-23T12:16:29.268Z,16.58
2022-08-23T12:19:01.622Z,15.35
2022-08-23T12:21:44.263Z,15.25
2022-08-23T12:24:23.092Z,14.70
2022-08-23T12:27:08.211Z,15.52
2022-08-23T12:30:16.962Z,14.68
2022-08-23T12:33:08.632Z,13.90
2022-08-23T12:36:01.573Z,13.63
2022-08-23T12:39:09.019Z,12.88
2022-08-23T12:41:52.387Z,14.18
2022-08-23T12:44:21.966Z,13.57
2022-08-23T12:46:50.475Z,12.73
2022-08-23T12:49:36.468Z,14.25
2022-08-23T12:52:12.071Z,13.05
2022-08-23T12:54:43.198Z,14.15
2022-08-23T12:57:19.502Z,13.73
2022-08-23T13:00:16.550Z,12.38
2022-08-23T13:03:18.481Z,14.10
2022-08-23T13:05:56.598Z,14.13
2022-08-23T13:08:39.826Z,13.88
2022-08-23T13:11:09.859Z,14.50
2022-08-23T13:13:42.774Z,14.20
2022-08-23T13:16:31.710Z,15.95
2022-08-23T13:19:16.668Z,16.23
2022-08-23T13:21:44.431Z,16.27
2022-08-23T13:24:38.532Z,15.60
2022-08-23T13:27:23.080Z,15.77
2022-08-23T13:29:59.525Z,15.40
2022-08-23T13:32:34.941Z,15.18
2022-08-23T13:35:31.647Z,14.48
2022-08-23T13:38:20.977Z,13.00
2022-08-23T13:41:03.141Z,14.15
2022-08-23T13:43:38.190Z,13.57
2022-08-23T13:46:13.084Z,12.27
2022-08-23T13:48:47.941Z,11.23
2022-08-23T13:51:33.635Z,11.30
2022-08-23T13:54:23.021Z,10.57
2022-08-23T13:56:53.377Z,10.50
2022-08-23T13:59:36.461Z,10.20
2022-08-23T14:02:08.380Z,10.80
2022-08-23T14:04:35.629Z,10.15
2022-08-23T14:07:03.193Z,10.18
2022-08-23T14:09:30.314Z,9.45
2022-08-23T14:11:59.807Z,9.75
2022-08-23T14:14:31.799Z,10.32
2022-08-23T14:17:02.623Z,9.10
2022-08-23T14:22:19.453Z,8.60
2022-08-23T14:24:46.717Z,9.00
2022-08-23T14:27:14.265Z,8.90
2022-08-23T14:29:41.529Z,8.95
2022-08-23T14:32:08.738Z,9.15
2022-08-23T14:34:36.074Z,8.70
2022-08-23T14:39:50.842Z,8.88
2022-08-23T14:42:22.173Z,9.32
2022-08-23T14:44:49.665Z,8.05
2022-08-23T14:47:17.325Z,9.43
2022-08-23T14:49:44.565Z,8.25
2022-08-23T14:52:14.070Z,9.27
2022-08-23T14:54:41.499Z,8.30
2022-08-23T14:57:08.722Z,8.05
2022-08-23T14:59:35.896Z,7.88
2022-08-23T15:02:05.149Z,8.52
2022-08-23T15:04:34.553Z,7.50
2022-08-23T15:07:19.920Z,8.25
2022-08-23T15:09:52.104Z,7.55
2022-08-23T15:15:12.322Z,7.95
2022-08-23T15:17:47.891Z,8.18
2022-08-23T15:20:15.598Z,7.65
2022-08-23T15:22:44.589Z,7.28
2022-08-23T15:25:13.840Z,7.25
2022-08-23T15:27:42.235Z,7.45
2022-08-23T15:30:10.891Z,7.35
2022-08-23T15:32:38.063Z,7.38
2022-08-23T15:35:07.575Z,7.10
2022-08-23T15:37:35.584Z,7.30
2022-08-23T15:40:04.129Z,7.88
2022-08-23T15:42:31.339Z,7.80
2022-08-23T15:44:58.728Z,6.93
2022-08-23T15:47:30.152Z,7.43
2022-08-23T15:49:58.828Z,7.95
2022-08-23T15:52:27.295Z,7.22
2022-08-23T15:54:55.261Z,7.35
2022-08-23T15:57:28.005Z,7.35
2022-08-23T15:59:57.415Z,7.47
2022-08-23T16:02:25.007Z,7.43
2022-08-23T16:04:52.126Z,7.50
2022-08-23T16:07:19.249Z,7.57
2022-08-23T16:09:47.385Z,7.70
2022-08-23T16:12:14.738Z,6.90
2022-08-23T16:14:41.835Z,7.47
2022-08-23T16:17:09.781Z,7.85
2022-08-23T16:19:37.082Z,7.35
2022-08-23T16:22:04.413Z,9.18
2022-08-23T16:24:31.642Z,7.43
2022-08-23T16:26:58.891Z,7.80
2022-08-23T16:29:28.838Z,8.10
2022-08-23T16:31:55.990Z,7.88
2022-08-23T16:34:23.512Z,7.68
2022-08-23T16:37:04.967Z,7.22
2022-08-23T16:39:34.621Z,7.78
2022-08-23T16:42:04.966Z,7.35
2022-08-23T16:44:33.626Z,7.65
2022-08-23T16:47:04.190Z,7.75
2022-08-23T16:49:34.924Z,7.90
2022-08-23T16:52:02.890Z,8.00
2022-08-23T16:54:30.200Z,8.90
2022-08-23T16:56:57.343Z,7.85
2022-08-23T16:59:25.523Z,8.02
2022-08-23T17:02:05.868Z,7.85
2022-08-23T17:04:38.432Z,7.85
2022-08-23T17:07:06.589Z,7.88
2022-08-23T17:09:33.756Z,8.30
2022-08-23T17:12:01.232Z,8.77
2022-08-23T17:14:28.661Z,8.35
2022-08-23T17:16:55.831Z,8.65
2022-08-23T17:19:23.153Z,8.93
2022-08-23T17:21:50.354Z,9.48
2022-08-23T17:24:17.612Z,8.63
2022-08-23T17:26:44.784Z,8.52
2022-08-23T17:29:12.474Z,8.50
2022-08-23T17:31:40.229Z,8.77
2022-08-23T17:34:07.843Z,9.30
2022-08-23T17:36:47.985Z,8.63
2022-08-23T17:39:18.662Z,9.25
2022-08-23T17:41:45.908Z,9.77
2022-08-23T17:44:15.593Z,8.73
2022-08-23T17:46:45.090Z,9.18
2022-08-23T17:49:14.400Z,9.02
2022-08-23T17:51:41.819Z,9.37
2022-08-23T17:54:10.264Z,9.98
2022-08-23T17:56:38.225Z,9.70
2022-08-23T17:59:08.831Z,9.13
2022-08-23T18:01:37.437Z,10.15
2022-08-23T18:04:06.580Z,10.15
2022-08-23T18:06:36.703Z,10.07
2022-08-23T18:11:35.068Z,9.82
2022-08-23T18:14:02.305Z,9.75
2022-08-23T18:16:34.649Z,9.60
2022-08-23T18:19:04.129Z,9.52
2022-08-23T18:21:31.653Z,9.70
2022-08-23T18:23:59.402Z,10.43
2022-08-23T18:26:46.267Z,9.52
2022-08-23T18:29:14.743Z,9.82
2022-08-23T18:31:44.082Z,10.40
2022-08-23T18:34:12.587Z,10.27
2022-08-23T18:36:40.214Z,11.02
2022-08-23T18:39:09.024Z,9.85
2022-08-23T18:41:36.263Z,10.85
2022-08-23T18:44:05.540Z,11.15
2022-08-23T18:46:37.751Z,10.85
2022-08-23T18:49:05.825Z,11.57
2022-08-23T18:51:33.134Z,11.10
2022-08-23T18:54:00.829Z,11.55
2022-08-23T18:56:28.200Z,11.73
2022-08-23T18:58:55.430Z,11.75
2022-08-23T19:01:33.664Z,11.70
2022-08-23T19:04:02.803Z,11.68
2022-08-23T19:06:30.824Z,11.70
2022-08-23T19:08:58.109Z,11.98
2022-08-23T19:11:25.383Z,11.27
2022-08-23T19:13:52.457Z,11.63
2022-08-23T19:16:21.968Z,11.05
2022-08-23T19:18:50.886Z,11.85
2022-08-23T19:21:21.595Z,12.95
2022-08-23T19:23:51.191Z,12.73
2022-08-23T19:26:22.191Z,14.05
2022-08-23T19:28:49.872Z,14.63
2022-08-23T19:31:17.412Z,16.05
2022-08-23T19:33:45.349Z,15.43
2022-08-23T19:36:35.808Z,15.43
2022-08-23T19:39:00.576Z,15.30
2022-08-23T19:41:27.780Z,15.18
2022-08-23T19:43:55.907Z,15.38
2022-08-23T19:46:23.255Z,15.00
2022-08-23T19:48:52.382Z,12.70
2022-08-23T19:51:21.559Z,14.07
2022-08-23T19:54:06.947Z,13.95
2022-08-23T19:59:09.162Z,13.30
2022-08-23T20:01:37.154Z,13.85
2022-08-23T20:04:05.435Z,14.55
2022-08-23T20:06:32.896Z,14.85
2022-08-23T20:09:00.209Z,13.23
2022-08-23T20:11:32.206Z,10.70
2022-08-23T20:14:01.496Z,9.20
2022-08-23T20:16:32.945Z,7.93
2022-08-23T20:22:57.230Z,7.35
2022-08-23T20:25:24.643Z,8.07
2022-08-23T20:27:52.087Z,7.40
2022-08-23T20:30:19.270Z,8.00
2022-08-23T20:32:46.433Z,7.00
2022-08-23T20:35:13.898Z,6.90
2022-08-23T20:37:41.172Z,7.63
2022-08-23T20:40:12.470Z,7.78
2022-08-23T20:42:39.917Z,7.88
2022-08-23T20:45:07.725Z,7.32
2022-08-23T20:47:35.671Z,7.28
2022-08-23T20:50:03.155Z,7.30
2022-08-23T20:52:34.425Z,7.22
2022-08-23T20:55:02.416Z,7.53
2022-08-23T20:57:32.018Z,7.47
2022-08-23T21:00:07.453Z,6.60
2022-08-23T21:02:34.982Z,5.80
2022-08-23T21:05:04.734Z,5.93
2022-08-23T21:07:33.852Z,5.38
2022-08-23T21:10:01.088Z,4.57
2022-08-23T21:12:28.683Z,4.78
2022-08-23T21:14:57.027Z,5.10
2022-08-23T21:17:24.399Z,5.20
2022-08-23T21:19:51.592Z,5.10
2022-08-23T21:22:18.823Z,5.07
2022-08-23T21:24:46.943Z,4.93
2022-08-23T21:27:15.877Z,4.80
2022-08-23T21:29:42.990Z,4.18
2022-08-23T21:32:10.298Z,4.95
2022-08-23T21:34:37.459Z,5.10
2022-08-23T21:37:04.717Z,5.10
2022-08-23T21:39:31.885Z,4.80
2022-08-23T21:41:59.200Z,4.78
2022-08-23T21:44:26.603Z,5.43
2022-08-23T21:46:53.788Z,4.95
2022-08-23T21:49:23.637Z,5.40
2022-08-23T21:51:51.559Z,5.20
2022-08-23T21:54:18.787Z,5.13
2022-08-23T21:56:46.194Z,5.97
2022-08-23T21:59:16.954Z,6.22
2022-08-23T22:01:45.393Z,6.68
2022-08-23T22:04:14.709Z,6.50
2022-08-23T22:06:44.251Z,6.15
2022-08-23T22:09:14.199Z,6.43
2022-08-23T22:11:43.336Z,6.57
2022-08-23T22:14:20.425Z,6.63
2022-08-23T22:16:49.626Z,6.72
2022-08-23T22:19:22.502Z,6.35
2022-08-23T22:21:51.583Z,6.55
2022-08-23T22:24:24.666Z,6.30
2022-08-23T22:26:53.286Z,6.43
2022-08-23T22:29:20.616Z,6.93
2022-08-23T22:31:48.541Z,7.05
2022-08-23T22:34:16.084Z,6.53
2022-08-23T22:36:43.219Z,6.60
2022-08-23T22:39:12.511Z,6.43
2022-08-23T22:41:40.143Z,6.33
2022-08-23T22:44:07.291Z,6.18
2022-08-23T22:46:35.317Z,5.97
2022-08-23T22:49:02.736Z,5.68
2022-08-23T22:51:32.755Z,5.80
2022-08-23T22:54:02.697Z,6.28
2022-08-23T22:56:42.768Z,6.82
2022-08-23T22:59:10.566Z,6.60
2022-08-23T23:01:44.245Z,6.38
2022-08-23T23:04:14.419Z,6.85
2022-08-23T23:06:42.051Z,6.55
2022-08-23T23:09:10.952Z,6.80
2022-08-23T23:11:40.183Z,6.88
2022-08-23T23:14:08.840Z,6.70
2022-08-23T23:16:36.513Z,7.38
2022-08-23T23:19:22.122Z,6.25
2022-08-23T23:21:52.499Z,6.90
2022-08-23T23:26:48.650Z,6.30
2022-08-23T23:29:16.885Z,6.10
2022-08-23T23:31:43.980Z,6.65
2022-08-23T23:34:11.114Z,6.68
2022-08-23T23:36:38.820Z,6.88
2022-08-23T23:39:08.687Z,6.40
2022-08-23T23:41:35.981Z,6.70
2022-08-23T23:44:03.535Z,6.22
2022-08-23T23:46:30.694Z,6.70
2022-08-23T23:48:57.831Z,6.38
2022-08-23T23:51:28.178Z,6.30
2022-08-23T23:56:25.699Z,6.75
2022-08-23T23:58:54.383Z,6.17
